createdAt,value
2022-08-17T00:01:32.747Z,14.43
2022-08-17T00:04:20.957Z,13.73
2022-08-17T00:06:49.553Z,14.50
2022-08-17T00:09:19.014Z,15.38
2022-08-17T00:12:34.606Z,14.95
2022-08-17T00:14:35.190Z,13.20
2022-08-17T00:17:03.885Z,13.63
2022-08-17T00:19:32.720Z,14.10
2022-08-17T00:22:31.324Z,14.13
2022-08-17T00:24:50.240Z,13.60
2022-08-17T00:27:17.630Z,14.17
2022-08-17T00:29:46.083Z,13.07
2022-08-17T00:33:22.701Z,13.90
2022-08-17T00:35:00.701Z,14.23
2022-08-17T00:37:27.813Z,14.77
2022-08-17T00:39:54.825Z,14.17
2022-08-17T00:42:21.747Z,14.05
2022-08-17T00:44:48.577Z,15.65
2022-08-17T00:47:15.519Z,15.93
2022-08-17T00:49:42.459Z,15.48
2022-08-17T00:52:15.638Z,14.77
2022-08-17T00:54:44.778Z,14.68
2022-08-17T00:57:32.228Z,13.85
2022-08-17T01:00:21.422Z,14.68
2022-08-17T01:02:48.482Z,14.90
2022-08-17T01:05:18.855Z,15.77
2022-08-17T01:07:46.481Z,15.90
2022-08-17T01:10:57.229Z,16.23
2022-08-17T01:13:02.549Z,15.95
2022-08-17T01:15:30.597Z,14.20
2022-08-17T01:17:57.582Z,14.87
2022-08-17T01:20:25.158Z,15.30
2022-08-17T01:22:52.659Z,15.30
2022-08-17T01:25:19.641Z,15.07
2022-08-17T01:27:46.737Z,16.63
2022-08-17T01:30:56.963Z,16.17
2022-08-17T01:33:00.731Z,14.48
2022-08-17T01:35:27.596Z,13.48
2022-08-17T01:37:54.517Z,14.18
2022-08-17T01:40:39.228Z,13.32
2022-08-17T01:43:10.659Z,12.93
2022-08-17T01:45:47.528Z,13.48
2022-08-17T01:48:14.757Z,13.85
2022-08-17T01:50:42.938Z,14.55
2022-08-17T01:53:12.239Z,14.30
2022-08-17T01:55:43.138Z,15.23
2022-08-17T01:58:10.121Z,15.00
2022-08-17T02:00:59.370Z,15.40
2022-08-17T02:03:25.197Z,15.23
2022-08-17T02:05:53.452Z,15.30
2022-08-17T02:08:20.804Z,15.03
2022-08-17T02:11:11.259Z,15.05
2022-08-17T02:13:38.437Z,16.13
2022-08-17T02:16:05.439Z,16.17
2022-08-17T02:18:32.246Z,16.02
2022-08-17T02:20:59.096Z,15.30
2022-08-17T02:23:27.316Z,14.32
2022-08-17T02:25:54.259Z,14.05
2022-08-17T02:28:21.132Z,14.80
2022-08-17T02:31:02.254Z,13.43
2022-08-17T02:33:41.709Z,13.87
2022-08-17T02:36:10.877Z,14.13
2022-08-17T02:38:38.694Z,13.52
2022-08-17T02:41:05.646Z,14.18
2022-08-17T02:43:32.599Z,13.02
2022-08-17T02:45:59.515Z,13.23
2022-08-17T02:48:30.771Z,12.88
2022-08-17T02:50:59.299Z,15.07
2022-08-17T02:53:26.241Z,14.57
2022-08-17T02:55:53.463Z,13.25
2022-08-17T02:58:35.292Z,14.33
2022-08-17T03:01:06.528Z,13.20
2022-08-17T03:03:33.483Z,14.00
2022-08-17T03:06:00.540Z,12.63
2022-08-17T03:08:27.397Z,13.18
2022-08-17T03:10:54.257Z,14.97
2022-08-17T03:13:21.197Z,14.35
2022-08-17T03:15:48.539Z,13.80
2022-08-17T03:18:21.946Z,13.80
2022-08-17T03:20:54.604Z,15.70
2022-08-17T03:23:24.079Z,17.57
2022-08-17T03:25:53.128Z,18.50
2022-08-17T03:28:20.765Z,17.85
2022-08-17T03:30:47.736Z,16.65
2022-08-17T03:33:14.789Z,15.80
2022-08-17T03:35:41.916Z,16.07
2022-08-17T03:38:10.253Z,16.35
2022-08-17T03:40:58.651Z,16.23
2022-08-17T03:43:24.003Z,16.60
2022-08-17T03:46:10.905Z,16.27
2022-08-17T03:49:14.480Z,15.83
2022-08-17T03:51:59.888Z,16.10
2022-08-17T03:54:44.985Z,15.10
2022-08-17T03:57:12.597Z,15.07
2022-08-17T03:59:39.601Z,16.27
2022-08-17T04:02:13.758Z,15.53
2022-08-17T04:04:40.759Z,15.32
2022-08-17T04:07:07.738Z,14.82
2022-08-17T04:09:34.780Z,15.25
2022-08-17T04:12:04.903Z,15.48
2022-08-17T04:14:52.281Z,15.57
2022-08-17T04:17:26.559Z,15.18
2022-08-17T04:19:53.755Z,14.45
2022-08-17T04:22:30.482Z,15.05
2022-08-17T04:25:05.942Z,15.70
2022-08-17T04:27:32.869Z,14.17
2022-08-17T04:29:59.881Z,15.05
2022-08-17T04:33:00.786Z,15.32
2022-08-17T04:35:18.599Z,15.55
2022-08-17T04:37:45.575Z,14.45
2022-08-17T04:40:30.639Z,15.60
2022-08-17T04:43:05.742Z,14.80
2022-08-17T04:45:32.836Z,15.65
2022-08-17T04:48:00.804Z,16.13
2022-08-17T04:50:27.951Z,14.48
2022-08-17T04:52:55.285Z,14.37
2022-08-17T04:55:22.460Z,13.43
2022-08-17T04:57:49.337Z,13.43
2022-08-17T05:00:16.354Z,12.90
2022-08-17T05:02:50.739Z,12.07
2022-08-17T05:05:19.858Z,12.50
2022-08-17T05:07:48.140Z,10.80
2022-08-17T05:10:15.014Z,11.70
2022-08-17T05:12:41.968Z,11.52
2022-08-17T05:15:16.106Z,11.60
2022-08-17T05:17:43.798Z,11.57
2022-08-17T05:20:10.997Z,11.38
2022-08-17T05:22:47.600Z,11.20
2022-08-17T05:25:17.156Z,11.98
2022-08-17T05:27:44.569Z,11.32
2022-08-17T05:30:13.398Z,10.67
2022-08-17T05:32:40.560Z,11.32
2022-08-17T05:35:08.017Z,10.00
2022-08-17T05:37:34.858Z,11.07
2022-08-17T05:40:01.892Z,11.05
2022-08-17T05:42:28.909Z,10.57
2022-08-17T05:44:58.022Z,11.30
2022-08-17T05:47:25.422Z,10.82
2022-08-17T05:49:53.906Z,11.27
2022-08-17T05:52:29.639Z,11.15
2022-08-17T05:55:30.952Z,10.77
2022-08-17T05:58:16.583Z,10.57
2022-08-17T06:01:04.428Z,10.70
2022-08-17T06:03:53.539Z,10.60
2022-08-17T06:06:38.281Z,9.27
2022-08-17T06:09:26.539Z,9.57
2022-08-17T06:12:33.697Z,10.27
2022-08-17T06:15:13.781Z,10.27
2022-08-17T06:17:41.061Z,9.85
2022-08-17T06:20:13.767Z,8.55
2022-08-17T06:23:04.788Z,9.37
2022-08-17T06:25:51.839Z,9.20
2022-08-17T06:28:30.914Z,8.95
2022-08-17T06:31:01.523Z,7.95
2022-08-17T06:33:36.950Z,8.40
2022-08-17T06:36:25.551Z,8.37
2022-08-17T06:39:23.415Z,7.80
2022-08-17T06:42:04.140Z,7.00
2022-08-17T06:44:43.692Z,7.13
2022-08-17T06:47:36.522Z,7.40
2022-08-17T06:50:05.693Z,7.20
2022-08-17T06:52:46.631Z,6.45
2022-08-17T06:55:44.379Z,6.55
2022-08-17T06:58:16.413Z,7.13
2022-08-17T07:00:46.254Z,6.95
2022-08-17T07:03:38.115Z,6.17
2022-08-17T07:06:29.842Z,6.55
2022-08-17T07:09:23.330Z,5.90
2022-08-17T07:11:58.809Z,6.25
2022-08-17T07:14:57.276Z,6.20
2022-08-17T07:17:46.522Z,6.17
2022-08-17T07:20:20.717Z,6.40
2022-08-17T07:23:22.099Z,5.85
2022-08-17T07:25:49.637Z,5.70
2022-08-17T07:28:23.018Z,4.97
2022-08-17T07:30:54.070Z,6.00
2022-08-17T07:33:27.545Z,7.38
2022-08-17T07:35:54.460Z,5.85
2022-08-17T07:38:28.322Z,5.53
2022-08-17T07:40:57.866Z,5.10
2022-08-17T07:43:50.016Z,6.07
2022-08-17T07:46:53.669Z,5.13
2022-08-17T07:49:31.717Z,5.45
2022-08-17T07:52:48.078Z,5.43
2022-08-17T07:54:48.419Z,5.38
2022-08-17T07:57:15.158Z,4.87
2022-08-17T08:00:02.185Z,5.15
2022-08-17T08:02:40.459Z,5.57
2022-08-17T08:05:46.654Z,5.38
2022-08-17T08:08:30.560Z,5.38
2022-08-17T08:11:03.642Z,5.13
2022-08-17T08:13:30.881Z,5.63
2022-08-17T08:16:19.974Z,5.28
2022-08-17T08:18:54.089Z,5.40
2022-08-17T08:21:46.561Z,4.57
2022-08-17T08:24:30.976Z,5.47
2022-08-17T08:27:19.585Z,4.72
2022-08-17T08:29:49.479Z,4.93
2022-08-17T08:32:22.480Z,5.07
2022-08-17T08:35:02.022Z,5.50
2022-08-17T08:37:58.191Z,5.20
2022-08-17T08:40:35.344Z,5.55
2022-08-17T08:43:22.079Z,5.10
2022-08-17T08:46:04.992Z,5.70
2022-08-17T08:49:11.957Z,5.18
2022-08-17T08:52:02.092Z,5.93
2022-08-17T08:54:34.935Z,5.07
2022-08-17T08:57:24.488Z,5.05
2022-08-17T09:00:14.801Z,6.38
2022-08-17T09:03:03.134Z,5.30
2022-08-17T09:05:43.117Z,5.60
2022-08-17T09:08:19.279Z,5.55
2022-08-17T09:10:57.876Z,5.30
2022-08-17T09:13:42.944Z,5.20
2022-08-17T09:16:23.282Z,5.85
2022-08-17T09:19:03.437Z,6.37
2022-08-17T09:21:52.710Z,6.75
2022-08-17T09:24:27.853Z,6.05
2022-08-17T09:27:13.590Z,6.68
2022-08-17T09:29:49.157Z,6.25
2022-08-17T09:32:42.137Z,5.60
2022-08-17T09:35:17.536Z,6.15
2022-08-17T09:38:32.675Z,5.55
2022-08-17T09:41:10.941Z,5.32
2022-08-17T09:43:49.822Z,5.53
2022-08-17T09:46:38.848Z,5.33
2022-08-17T09:49:15.085Z,5.88
2022-08-17T09:51:49.397Z,5.75
2022-08-17T09:54:39.578Z,6.20
2022-08-17T09:57:49.513Z,5.97
2022-08-17T10:00:27.060Z,6.20
2022-08-17T10:03:32.497Z,5.70
2022-08-17T10:06:07.843Z,6.03
2022-08-17T10:08:57.534Z,5.85
2022-08-17T10:12:04.098Z,6.05
2022-08-17T10:14:43.647Z,5.77
2022-08-17T10:17:26.500Z,6.30
2022-08-17T10:19:55.777Z,5.78
2022-08-17T10:23:22.706Z,5.75
2022-08-17T10:26:04.806Z,5.88
2022-08-17T10:28:52.738Z,5.97
2022-08-17T10:31:35.705Z,6.57
2022-08-17T10:34:41.079Z,5.68
2022-08-17T10:37:40.624Z,5.78
2022-08-17T10:40:32.602Z,6.25
2022-08-17T10:43:18.297Z,6.77
2022-08-17T10:46:27.738Z,6.78
2022-08-17T10:49:18.466Z,6.53
2022-08-17T10:51:47.852Z,6.60
2022-08-17T10:54:47.365Z,5.93
2022-08-17T10:57:39.679Z,6.90
2022-08-17T11:00:13.011Z,6.13
2022-08-17T11:02:50.453Z,6.40
2022-08-17T11:05:43.762Z,6.53
2022-08-17T11:08:49.943Z,6.43
2022-08-17T11:11:43.438Z,6.63
2022-08-17T11:14:29.138Z,6.00
2022-08-17T11:17:20.695Z,6.38
2022-08-17T11:20:05.887Z,6.53
2022-08-17T11:22:55.717Z,6.65
2022-08-17T11:25:33.259Z,7.23
2022-08-17T11:28:25.699Z,6.95
2022-08-17T11:31:10.079Z,7.05
2022-08-17T11:33:42.804Z,6.45
2022-08-17T11:36:31.697Z,6.65
2022-08-17T11:39:36.504Z,6.80
2022-08-17T11:42:37.589Z,6.55
2022-08-17T11:45:42.336Z,6.80
2022-08-17T11:49:05.345Z,6.55
2022-08-17T11:51:56.053Z,6.03
2022-08-17T11:54:47.267Z,6.53
2022-08-17T11:57:26.419Z,6.50
2022-08-17T11:59:58.421Z,6.30
2022-08-17T12:02:31.778Z,6.38
2022-08-17T12:05:04.383Z,6.60
2022-08-17T12:07:41.742Z,6.63
2022-08-17T12:10:08.840Z,6.03
2022-08-17T12:12:36.046Z,6.22
2022-08-17T12:15:10.689Z,6.10
2022-08-17T12:17:51.901Z,5.55
2022-08-17T12:20:24.818Z,5.67
2022-08-17T12:23:33.214Z,5.88
2022-08-17T12:26:12.176Z,6.25
2022-08-17T12:28:39.375Z,5.53
2022-08-17T12:31:15.275Z,6.35
2022-08-17T12:33:46.093Z,6.30
2022-08-17T12:36:17.134Z,6.05
2022-08-17T12:38:50.696Z,5.10
2022-08-17T12:41:42.405Z,5.40
2022-08-17T12:44:16.202Z,5.55
2022-08-17T12:46:59.685Z,6.27
2022-08-17T12:49:35.596Z,4.95
2022-08-17T12:52:06.819Z,5.47
2022-08-17T12:54:38.576Z,6.30
2022-08-17T12:57:17.074Z,5.65
2022-08-17T12:59:47.400Z,6.40
2022-08-17T13:03:06.017Z,5.88
2022-08-17T13:05:40.694Z,6.07
2022-08-17T13:08:16.700Z,6.13
2022-08-17T13:10:43.978Z,6.45
2022-08-17T13:13:27.981Z,6.17
2022-08-17T13:15:59.696Z,5.97
2022-08-17T13:18:48.957Z,6.00
2022-08-17T13:21:26.810Z,6.18
2022-08-17T13:24:12.028Z,6.32
2022-08-17T13:26:45.765Z,6.07
2022-08-17T13:29:30.627Z,5.88
2022-08-17T13:32:16.015Z,6.90
2022-08-17T13:34:51.391Z,6.45
2022-08-17T13:37:36.116Z,6.88
2022-08-17T13:40:12.065Z,7.60
2022-08-17T13:42:53.164Z,6.88
2022-08-17T13:45:39.665Z,6.70
2022-08-17T13:48:11.112Z,6.85
2022-08-17T13:50:59.582Z,7.15
2022-08-17T13:53:36.065Z,7.20
2022-08-17T13:56:33.448Z,7.10
2022-08-17T13:59:08.797Z,7.15
2022-08-17T14:01:41.151Z,7.22
2022-08-17T14:04:16.063Z,7.82
2022-08-17T14:06:54.090Z,6.73
2022-08-17T14:09:24.368Z,7.55
2022-08-17T14:11:51.383Z,7.28
2022-08-17T14:14:18.404Z,7.03
2022-08-17T14:16:45.176Z,7.55
2022-08-17T14:19:13.158Z,7.83
2022-08-17T14:21:42.902Z,9.20
2022-08-17T14:24:31.346Z,9.02
2022-08-17T14:26:58.997Z,9.77
2022-08-17T14:29:27.892Z,10.38
2022-08-17T14:31:55.012Z,12.33
2022-08-17T14:34:22.886Z,9.85
2022-08-17T14:36:49.657Z,10.10
2022-08-17T14:39:16.711Z,10.20
2022-08-17T14:41:43.709Z,10.55
2022-08-17T14:44:12.624Z,10.80
2022-08-17T14:46:43.005Z,11.55
2022-08-17T14:49:11.165Z,11.82
2022-08-17T14:51:43.637Z,12.90
2022-08-17T14:54:33.189Z,12.98
2022-08-17T14:57:22.903Z,12.90
2022-08-17T14:59:54.996Z,11.93
2022-08-17T15:02:30.028Z,11.75
2022-08-17T15:05:04.284Z,13.15
2022-08-17T15:07:31.673Z,11.90
2022-08-17T15:10:02.312Z,13.03
2022-08-17T15:12:33.386Z,10.85
2022-08-17T15:15:05.046Z,11.05
2022-08-17T15:17:45.149Z,10.90
2022-08-17T15:20:17.745Z,10.43
2022-08-17T15:22:45.005Z,10.90
2022-08-17T15:25:12.167Z,11.23
2022-08-17T15:27:40.270Z,11.93
2022-08-17T15:30:07.517Z,11.52
2022-08-17T15:32:36.038Z,12.68
2022-08-17T15:35:03.034Z,12.23
2022-08-17T15:37:31.847Z,15.63
2022-08-17T15:40:00.793Z,14.05
2022-08-17T15:42:27.739Z,14.75
2022-08-17T15:44:57.236Z,13.27
2022-08-17T15:47:24.423Z,11.77
2022-08-17T15:49:51.225Z,12.45
2022-08-17T15:52:24.213Z,11.88
2022-08-17T15:54:58.364Z,12.70
2022-08-17T15:57:25.782Z,11.35
2022-08-17T15:59:58.811Z,11.50
2022-08-17T16:03:45.219Z,11.10
2022-08-17T16:05:17.576Z,10.05
2022-08-17T16:07:47.082Z,11.25
2022-08-17T16:10:18.676Z,12.05
2022-08-17T16:12:46.483Z,11.00
2022-08-17T16:15:13.843Z,11.52
2022-08-17T16:17:41.567Z,10.70
2022-08-17T16:20:10.035Z,11.40
2022-08-17T16:22:47.661Z,11.00
2022-08-17T16:25:17.564Z,10.87
2022-08-17T16:27:44.703Z,12.32
2022-08-17T16:30:16.904Z,10.88
2022-08-17T16:32:45.540Z,10.88
2022-08-17T16:35:12.469Z,10.43
2022-08-17T16:37:40.403Z,10.20
2022-08-17T16:40:12.726Z,10.70
2022-08-17T16:42:39.781Z,10.30
2022-08-17T16:45:16.991Z,9.55
2022-08-17T16:47:44.011Z,9.88
2022-08-17T16:50:12.632Z,9.53
2022-08-17T16:52:39.960Z,9.45
2022-08-17T16:55:08.049Z,9.90
2022-08-17T16:57:35.886Z,9.30
2022-08-17T17:00:03.943Z,9.70
2022-08-17T17:02:38.547Z,10.07
2022-08-17T17:05:29.744Z,10.30
2022-08-17T17:08:07.832Z,9.73
2022-08-17T17:10:43.455Z,11.27
2022-08-17T17:13:29.417Z,10.85
2022-08-17T17:16:01.959Z,11.37
2022-08-17T17:18:51.775Z,11.50
2022-08-17T17:21:20.023Z,10.63
2022-08-17T17:23:55.103Z,12.52
2022-08-17T17:26:32.998Z,12.10
2022-08-17T17:29:20.758Z,12.67
2022-08-17T17:32:09.880Z,12.88
2022-08-17T17:34:36.585Z,13.02
2022-08-17T17:37:08.601Z,13.73
2022-08-17T17:39:43.860Z,14.60
2022-08-17T17:42:14.198Z,15.17
2022-08-17T17:45:06.828Z,14.77
2022-08-17T17:47:33.969Z,15.43
2022-08-17T17:50:01.464Z,16.08
2022-08-17T17:52:36.339Z,16.00
2022-08-17T17:55:05.324Z,16.80
2022-08-17T17:58:06.656Z,16.70
2022-08-17T18:00:54.165Z,15.80
2022-08-17T18:03:20.801Z,16.20
2022-08-17T18:06:04.160Z,17.42
2022-08-17T18:08:49.468Z,17.20
2022-08-17T18:11:37.144Z,16.77
2022-08-17T18:14:14.854Z,17.27
2022-08-17T18:16:42.835Z,18.52
2022-08-17T18:19:16.340Z,18.80
2022-08-17T18:21:45.948Z,17.83
2022-08-17T18:24:13.187Z,19.15
2022-08-17T18:27:23.439Z,19.98
2022-08-17T18:30:00.247Z,20.17
2022-08-17T18:32:43.682Z,19.50
2022-08-17T18:35:10.426Z,19.80
2022-08-17T18:37:57.013Z,22.40
2022-08-17T18:40:26.888Z,22.15
2022-08-17T18:43:07.392Z,23.33
2022-08-17T18:45:49.269Z,23.42
2022-08-17T18:48:22.058Z,24.00
2022-08-17T18:50:51.484Z,25.10
2022-08-17T18:53:40.719Z,24.92
2022-08-17T18:56:48.527Z,24.75
2022-08-17T18:59:47.007Z,26.10
2022-08-17T19:02:27.267Z,25.03
2022-08-17T19:05:09.073Z,25.85
2022-08-17T19:07:38.004Z,25.58
2022-08-17T19:10:13.880Z,24.15
2022-08-17T19:12:43.290Z,25.77
2022-08-17T19:15:11.162Z,24.03
2022-08-17T19:17:42.918Z,24.10
2022-08-17T19:20:19.643Z,24.50
2022-08-17T19:23:11.920Z,24.38
2022-08-17T19:25:43.464Z,24.98
2022-08-17T19:28:23.177Z,23.93
2022-08-17T19:30:54.424Z,22.88
2022-08-17T19:33:21.309Z,24.00
2022-08-17T19:36:00.539Z,24.42
2022-08-17T19:38:41.422Z,24.92
2022-08-17T19:41:25.227Z,23.00
2022-08-17T19:43:54.879Z,22.90
2022-08-17T19:46:35.734Z,24.67
2022-08-17T19:49:33.461Z,23.58
2022-08-17T19:52:34.631Z,23.95
2022-08-17T19:55:20.697Z,23.57
2022-08-17T19:58:12.275Z,25.00
2022-08-17T20:00:49.358Z,25.25
2022-08-17T20:03:40.891Z,25.70
2022-08-17T20:06:15.286Z,24.67
2022-08-17T20:09:33.810Z,24.03
2022-08-17T20:12:09.521Z,24.65
2022-08-17T20:14:55.350Z,24.45
2022-08-17T20:17:24.911Z,26.70
2022-08-17T20:20:01.431Z,26.40
2022-08-17T20:22:36.841Z,25.03
2022-08-17T20:25:46.183Z,25.77
2022-08-17T20:28:27.927Z,26.65
2022-08-17T20:30:54.867Z,30.15
2022-08-17T20:33:36.180Z,31.70
2022-08-17T20:36:17.210Z,31.30
2022-08-17T20:38:50.371Z,30.75
2022-08-17T20:41:22.479Z,29.20
2022-08-17T20:44:09.710Z,27.55
2022-08-17T20:46:36.381Z,27.90
2022-08-17T20:49:09.025Z,29.13
2022-08-17T20:52:01.726Z,29.95
2022-08-17T20:54:47.780Z,30.25
2022-08-17T20:57:33.039Z,28.27
2022-08-17T21:00:16.460Z,27.88
2022-08-17T21:02:47.589Z,27.73
2022-08-17T21:05:37.685Z,29.55
2022-08-17T21:08:28.522Z,28.80
2022-08-17T21:10:55.582Z,29.02
2022-08-17T21:14:08.313Z,29.70
2022-08-17T21:16:39.678Z,29.93
2022-08-17T21:19:11.010Z,29.08
2022-08-17T21:22:34.535Z,29.27
2022-08-17T21:25:19.490Z,29.38
2022-08-17T21:27:54.698Z,30.15
2022-08-17T21:30:28.838Z,29.53
2022-08-17T21:33:20.083Z,31.55
2022-08-17T21:36:11.813Z,31.25
2022-08-17T21:38:57.971Z,29.65
2022-08-17T21:41:29.161Z,28.75
2022-08-17T21:44:05.381Z,27.13
2022-08-17T21:46:37.038Z,27.10
2022-08-17T21:49:13.914Z,26.70
2022-08-17T21:51:57.165Z,25.42
2022-08-17T21:54:34.593Z,29.08
2022-08-17T21:57:03.112Z,29.90
2022-08-17T21:59:37.801Z,29.92
2022-08-17T22:02:09.152Z,31.60
2022-08-17T22:04:36.835Z,29.58
2022-08-17T22:07:08.780Z,27.65
2022-08-17T22:09:41.457Z,24.47
2022-08-17T22:12:12.903Z,24.42
2022-08-17T22:14:52.448Z,26.52
2022-08-17T22:17:35.477Z,28.98
2022-08-17T22:20:15.441Z,29.05
2022-08-17T22:23:06.642Z,27.87
2022-08-17T22:25:35.977Z,27.02
2022-08-17T22:28:09.320Z,27.70
2022-08-17T22:31:01.757Z,29.80
2022-08-17T22:33:36.984Z,28.60
2022-08-17T22:36:35.135Z,26.33
2022-08-17T22:39:08.801Z,26.45
2022-08-17T22:41:55.202Z,26.23
2022-08-17T22:44:37.920Z,25.60
2022-08-17T22:47:19.082Z,25.20
2022-08-17T22:49:54.732Z,25.40
2022-08-17T22:53:00.410Z,26.27
2022-08-17T22:55:46.023Z,35.17
2022-08-17T22:58:33.204Z,31.10
2022-08-17T23:01:27.714Z,32.72
2022-08-17T23:04:33.077Z,34.53
2022-08-17T23:06:59.875Z,31.52
2022-08-17T23:09:26.781Z,30.17
2022-08-17T23:11:57.420Z,30.15
2022-08-17T23:14:25.040Z,29.35
2022-08-17T23:16:51.810Z,30.40
2022-08-17T23:19:20.275Z,29.75
2022-08-17T23:21:47.052Z,34.35
2022-08-17T23:24:27.531Z,36.03
2022-08-17T23:26:57.269Z,34.47
2022-08-17T23:29:24.940Z,31.43
2022-08-17T23:31:51.830Z,31.20
2022-08-17T23:34:18.751Z,30.35
2022-08-17T23:36:52.858Z,30.13
2022-08-17T23:39:27.828Z,32.42
2022-08-17T23:41:59.381Z,37.90
2022-08-17T23:44:26.684Z,37.88
2022-08-17T23:46:53.728Z,40.08
2022-08-17T23:49:20.486Z,36.17
2022-08-17T23:51:47.860Z,33.00
2022-08-17T23:54:26.576Z,30.70
2022-08-17T23:56:53.416Z,29.63
2022-08-17T23:59:21.356Z,27.88
